Welcome to La Porte Aviation Services!

An aviation adventure awaits

Current Weather Conditions

Available data for KPPO from the past 2 hours
LA PORTE, IN
Metar
KPPO 201255Z AUTO 32011G16KT 10SM SCT014 SCT020 OVC029 09/06 A2997 RMK AO2 T00900064

12:55 UTC

Wind: 320° 11kt

Visibility: 10 SM

Sky: SCT 1400 ft

Temp: 9 deg C / 48.2 deg F

Dewpoint: 6 deg C / 42.8 deg F

Pressure: 29.97 inHg

Pireps (13)
FWA UA /OV FWA/TM 1252/FL410/TP CL35/TB NEG
BTL UA /OV PMM010025/TM 1247/FL320/TP B739/TB MOD CHOP
BTL UA /OV 130040/TM 1242/FL020/TP F900/SK OVC017/RM +/- 10KT
ORD UA /OV ORD270007/TM 1233/FL050/TP CRJ7/SK OVC028-TOP040/TA M02/WV 330 AT 25/TB NEG/IC NEG
ORD UA /OV ORD045025/TM 1222/FL040/TP C560/SK BKN TOPS 041 BASES 027/IC NEG
ORD UA /OV RWY28C FINAL/TM 1215/FLDRGD/TP A321/SK 034BKN
ORD UA /OV JOT167023 /TM 1210 /FL080 /TP SR22 /WX FV99 /WV 320030KT /TB NEG /IC NEG/RM AWC-WEB
GSH UA /OV GSH270020/TM 1206/FL300/TP B739/TB NEG
LAF UA /OV BVT/TM 1154/FL320/TP B738/TB CONS LGT CHOP
GSH UA /OV GSH090030/TM 1147/FL340/TP B738/TB OCNL LGT
GSH UA /OV GSH270020/TM 1141/FL340/TP B752/TB NEG
GSH UA /OV GSH/TM 1139/FL260/TP B738/TB INTMT LGT CHOP
ARP UAL731 4017N 08733W 1113 F340 269/076 TB LGT CHOP IC

Connect with us on Facebook!

Facebook By Weblizar Powered By Weblizar